Airfield :
LOGIN :

Register | Disclaimer

   EN    FR    IT 

 










Legend :    VFR   Marginal VFR   IFR   Intensive IFR   Very Intensive IFR
Visi :
Ceiling :
>= 8 km
>= 3000ft
5 to 8 km
1000 to 3000 ft
1500m to 5 km
500 to 1000 ft
800 to 1500m
200 to 500 ft
< 800m
< 200 ft
Symbols :   Thunderstorms  Fog  Heavy snow  Heavy precipitations  Wind > 20 kt
SIGMETs :     Misc.  Thunderstorms  Icing  Turbulence  Mountain Waves  Volcanic Ashes






- Airport Elevation : 32 ft
- IATA code : NRK


ESSP - Norrköping

CURRENT METAR :
  • 270220Z AUTO 07007KT 9999 BKN120/// BKN140/// 19/16 Q1013

EXPIRED METARs :
  • 270150Z AUTO 07006KT 9999 FEW086/// BKN110/// 20/16 Q1013
  • 270120Z AUTO 07004KT 9999 BKN120/// 19/16 Q1013
  • 270050Z AUTO 04003KT 9999 SCT082/// BKN100/// OVC120/// 19/17 Q1013
  • 270020Z AUTO 06004KT 9999 -RA OVC110/// 20/17 Q1014 REDZ
  • 262350Z AUTO 07005KT 9999 OVC110/// 20/16 Q1014

Expired Forecast.



MET'MAP, your aeronautical weather chart ! - Copyright ORBIFLY December 2007 - Disclaimer

ORBIFLY MET'MAP TEAM :

Programming & Development : Alexandra Zaïnal
Concept & original design : Baudouin d'Aumeries
Assistance for programming : Marc-Olivier Méhu
Technical & hardware support : Manuel Goepfert

Contact : metmap@orbifly.com




SOURCES & CREDITS :

   NOAA